createdAt,value
2018-10-01T00:01:43.641Z,63.51
2018-10-01T00:04:13.629Z,63.57
2018-10-01T00:06:43.797Z,64.22
2018-10-01T00:09:13.740Z,63.66
2018-10-01T00:11:43.694Z,63.76
2018-10-01T00:14:13.670Z,64.25
2018-10-01T00:16:43.692Z,64.09
2018-10-01T00:19:18.620Z,64.00
2018-10-01T00:21:53.667Z,63.87
2018-10-01T00:24:23.896Z,63.65
2018-10-01T00:26:53.843Z,64.16
2018-10-01T00:29:23.863Z,64.75
2018-10-01T00:31:53.841Z,64.61
2018-10-01T00:34:23.924Z,64.13
2018-10-01T00:36:53.871Z,64.45
2018-10-01T00:39:23.868Z,64.65
2018-10-01T00:41:53.867Z,64.60
2018-10-01T00:44:23.867Z,64.26
2018-10-01T00:46:53.864Z,64.58
2018-10-01T00:49:23.875Z,65.04
2018-10-01T00:51:53.850Z,64.90
2018-10-01T00:54:23.808Z,64.90
2018-10-01T00:56:53.812Z,65.16
2018-10-01T00:59:23.762Z,64.90
2018-10-01T01:01:53.796Z,64.83
2018-10-01T01:04:23.727Z,64.21
2018-10-01T01:06:53.691Z,65.04
2018-10-01T01:09:23.675Z,65.00
2018-10-01T01:11:53.683Z,65.14
2018-10-01T01:14:23.686Z,64.94
2018-10-01T01:16:53.593Z,65.13
2018-10-01T01:19:23.589Z,64.79
2018-10-01T01:21:53.602Z,64.80
2018-10-01T01:24:23.558Z,64.73
2018-10-01T01:26:53.642Z,64.53
2018-10-01T01:29:23.692Z,65.30
2018-10-01T01:31:53.703Z,64.60
2018-10-01T01:34:23.673Z,64.93
2018-10-01T01:36:53.679Z,65.54
2018-10-01T01:39:23.694Z,65.19
2018-10-01T01:41:53.609Z,64.68
2018-10-01T01:44:23.626Z,64.71
2018-10-01T01:46:53.603Z,64.74
2018-10-01T01:49:23.611Z,64.48
2018-10-01T01:51:53.605Z,64.16
2018-10-01T01:54:23.539Z,64.35
2018-10-01T01:56:53.502Z,64.91
2018-10-01T01:59:23.489Z,64.56
2018-10-01T02:01:53.396Z,64.70
2018-10-01T02:04:23.246Z,64.58
2018-10-01T02:06:53.268Z,64.17
2018-10-01T02:09:23.234Z,64.35
2018-10-01T02:11:53.210Z,64.55
2018-10-01T02:14:23.287Z,64.43
2018-10-01T02:16:53.306Z,64.23
2018-10-01T02:19:23.215Z,63.97
2018-10-01T02:21:53.142Z,64.31
2018-10-01T02:24:23.142Z,64.35
2018-10-01T02:26:53.181Z,64.62
2018-10-01T02:29:23.194Z,64.39
2018-10-01T02:31:53.171Z,64.31
2018-10-01T02:34:23.112Z,64.58
2018-10-01T02:36:53.073Z,64.66
2018-10-01T02:39:23.023Z,64.63
2018-10-01T02:41:53.033Z,64.85
2018-10-01T02:44:22.943Z,64.56
2018-10-01T02:46:52.874Z,64.10
2018-10-01T02:49:22.871Z,64.48
2018-10-01T02:51:57.768Z,64.58
2018-10-01T02:54:29.950Z,64.60
2018-10-01T02:57:00.339Z,65.04
2018-10-01T02:59:30.414Z,64.82
2018-10-01T03:02:00.577Z,65.17
2018-10-01T03:04:31.386Z,65.31
2018-10-01T03:07:01.343Z,64.70
2018-10-01T03:09:31.303Z,64.90
2018-10-01T03:12:01.267Z,65.03
2018-10-01T03:14:31.214Z,65.49
2018-10-01T03:17:01.142Z,65.03
2018-10-01T03:19:31.072Z,65.49
2018-10-01T03:22:01.068Z,65.73
2018-10-01T03:24:31.051Z,65.76
2018-10-01T03:27:01.000Z,65.22
2018-10-01T03:29:30.923Z,65.43
2018-10-01T03:32:00.934Z,65.95
2018-10-01T03:34:30.898Z,65.48
2018-10-01T03:37:00.831Z,65.61
2018-10-01T03:39:30.735Z,65.67
2018-10-01T03:42:00.678Z,65.80
2018-10-01T03:44:30.678Z,66.02
2018-10-01T03:47:00.668Z,65.74
2018-10-01T03:49:30.607Z,65.68
2018-10-01T03:52:00.589Z,65.23
2018-10-01T03:54:30.603Z,65.42
2018-10-01T03:57:00.553Z,64.63
2018-10-01T03:59:30.511Z,65.34
2018-10-01T04:02:00.484Z,65.20
2018-10-01T04:04:30.527Z,64.47
2018-10-01T04:07:00.507Z,64.66
2018-10-01T04:09:30.547Z,64.61
2018-10-01T04:12:00.504Z,64.42
2018-10-01T04:14:30.494Z,64.82
2018-10-01T04:17:00.429Z,64.75
2018-10-01T04:19:30.444Z,64.10
2018-10-01T04:22:00.436Z,63.99
2018-10-01T04:24:30.419Z,64.04
2018-10-01T04:27:00.407Z,64.57
2018-10-01T04:29:30.390Z,63.91
2018-10-01T04:32:00.387Z,64.30
2018-10-01T04:34:30.512Z,64.47
2018-10-01T04:37:00.520Z,63.96
2018-10-01T04:39:30.503Z,64.35
2018-10-01T04:42:00.505Z,64.30
2018-10-01T04:44:30.427Z,64.41
2018-10-01T04:47:00.387Z,63.90
2018-10-01T04:49:30.346Z,64.29
2018-10-01T04:52:00.327Z,64.16
2018-10-01T04:54:31.134Z,63.80
2018-10-01T04:57:01.140Z,64.62
2018-10-01T04:59:31.052Z,64.30
2018-10-01T05:02:01.216Z,64.24
2018-10-01T05:04:31.085Z,64.19
2018-10-01T05:07:01.507Z,64.33
2018-10-01T05:09:31.478Z,63.99
2018-10-01T05:12:01.647Z,64.35
2018-10-01T05:14:31.635Z,64.38
2018-10-01T05:17:01.589Z,64.65
2018-10-01T05:19:31.534Z,64.51
2018-10-01T05:22:01.503Z,64.25
2018-10-01T05:24:32.361Z,64.43
2018-10-01T05:27:02.337Z,64.67
2018-10-01T05:29:32.272Z,64.43
2018-10-01T05:32:02.255Z,64.16
2018-10-01T05:34:32.174Z,64.41
2018-10-01T05:37:02.177Z,64.53
2018-10-01T05:39:32.138Z,64.36
2018-10-01T05:42:02.062Z,63.93
2018-10-01T05:44:32.020Z,64.30
2018-10-01T05:47:01.973Z,63.74
2018-10-01T05:49:31.927Z,63.58
2018-10-01T05:52:01.834Z,63.92
2018-10-01T05:54:31.780Z,64.32
2018-10-01T05:57:01.764Z,63.96
2018-10-01T05:59:31.743Z,63.97
2018-10-01T06:02:01.706Z,63.67
2018-10-01T06:04:31.636Z,63.67
2018-10-01T06:07:01.623Z,63.74
2018-10-01T06:09:31.632Z,62.82
2018-10-01T06:12:01.735Z,62.89
2018-10-01T06:14:31.552Z,62.97
2018-10-01T06:17:01.545Z,62.81
2018-10-01T06:19:31.467Z,63.05
2018-10-01T06:22:01.479Z,62.54
2018-10-01T06:24:31.458Z,62.85
2018-10-01T06:27:01.431Z,63.13
2018-10-01T06:29:31.711Z,63.28
2018-10-01T06:32:01.647Z,62.69
2018-10-01T06:34:31.525Z,62.36
2018-10-01T06:37:01.552Z,62.44
2018-10-01T06:39:31.516Z,62.04
2018-10-01T06:42:01.581Z,61.92
2018-10-01T06:44:31.458Z,61.84
2018-10-01T06:47:01.474Z,61.93
2018-10-01T06:49:31.446Z,61.39
2018-10-01T06:52:01.383Z,61.89
2018-10-01T06:54:31.350Z,61.65
2018-10-01T06:57:01.327Z,61.83
2018-10-01T06:59:31.327Z,61.04
2018-10-01T07:02:01.179Z,61.95
2018-10-01T07:04:31.119Z,61.27
2018-10-01T07:07:01.123Z,62.14
2018-10-01T07:09:31.100Z,61.63
2018-10-01T07:12:01.090Z,61.18
2018-10-01T07:14:31.004Z,61.21
2018-10-01T07:17:00.949Z,61.09
2018-10-01T07:19:30.910Z,60.56
2018-10-01T07:22:00.859Z,60.94
2018-10-01T07:24:30.877Z,60.69
2018-10-01T07:27:00.856Z,60.84
2018-10-01T07:29:30.813Z,60.53
2018-10-01T07:32:00.767Z,60.32
2018-10-01T07:34:30.763Z,59.94
2018-10-01T07:37:00.765Z,60.48
2018-10-01T07:39:30.763Z,60.26
2018-10-01T07:42:00.824Z,60.08
2018-10-01T07:44:30.806Z,59.99
2018-10-01T07:47:00.778Z,59.78
2018-10-01T07:49:30.813Z,60.56
2018-10-01T07:52:00.844Z,60.39
2018-10-01T07:54:30.756Z,59.78
2018-10-01T07:57:00.745Z,59.87
2018-10-01T07:59:30.810Z,58.97
2018-10-01T08:02:00.745Z,59.44
2018-10-01T08:04:30.758Z,58.47
2018-10-01T08:07:00.772Z,58.51
2018-10-01T08:09:31.770Z,57.79
2018-10-01T08:12:03.499Z,57.69
2018-10-01T08:14:33.534Z,58.26
2018-10-01T08:17:03.473Z,57.99
2018-10-01T08:19:33.460Z,57.49
2018-10-01T08:22:03.663Z,57.27
2018-10-01T08:24:33.662Z,56.95
2018-10-01T08:27:03.680Z,57.02
2018-10-01T08:29:33.652Z,57.21
2018-10-01T08:32:03.667Z,56.66
2018-10-01T08:34:33.536Z,56.15
2018-10-01T08:37:03.506Z,57.16
2018-10-01T08:39:33.487Z,56.39
2018-10-01T08:42:03.504Z,55.78
2018-10-01T08:44:33.495Z,56.41
2018-10-01T08:47:03.523Z,56.61
2018-10-01T08:49:38.611Z,55.40
2018-10-01T08:52:14.844Z,54.47
2018-10-01T08:54:46.644Z,53.56
2018-10-01T08:57:16.597Z,54.17
2018-10-01T08:59:46.496Z,53.20
2018-10-01T09:02:16.599Z,53.51
2018-10-01T09:04:46.409Z,52.84
2018-10-01T09:07:16.364Z,52.24
2018-10-01T09:09:46.356Z,52.01
2018-10-01T09:12:16.378Z,51.91
2018-10-01T09:14:46.397Z,51.88
2018-10-01T09:17:16.433Z,51.83
2018-10-01T09:19:46.399Z,50.97
2018-10-01T09:22:16.323Z,51.36
2018-10-01T09:24:46.289Z,49.89
2018-10-01T09:27:17.148Z,49.21
2018-10-01T09:29:47.383Z,49.65
2018-10-01T09:32:17.425Z,50.32
2018-10-01T09:34:47.331Z,49.47
2018-10-01T09:37:17.256Z,50.09
2018-10-01T09:39:47.315Z,50.41
2018-10-01T09:42:17.264Z,50.16
2018-10-01T09:44:47.639Z,49.15
2018-10-01T09:47:17.644Z,49.89
2018-10-01T09:49:47.629Z,49.36
2018-10-01T09:52:17.637Z,49.31
2018-10-01T09:54:47.567Z,50.02
2018-10-01T09:57:17.883Z,48.57
2018-10-01T09:59:47.829Z,50.27
2018-10-01T10:02:17.830Z,48.41
2018-10-01T10:04:48.336Z,47.13
2018-10-01T10:07:18.314Z,46.70
2018-10-01T10:09:48.279Z,46.61
2018-10-01T10:12:18.943Z,46.98
2018-10-01T10:14:48.848Z,46.32
2018-10-01T10:17:18.833Z,46.06
2018-10-01T10:19:48.802Z,45.10
2018-10-01T10:22:18.822Z,46.47
2018-10-01T10:24:48.743Z,46.80
2018-10-01T10:27:18.727Z,46.06
2018-10-01T10:29:48.687Z,46.39
2018-10-01T10:32:18.653Z,47.37
2018-10-01T10:34:48.614Z,50.01
2018-10-01T10:37:18.566Z,49.19
2018-10-01T10:39:48.649Z,49.50
2018-10-01T10:42:18.584Z,50.85
2018-10-01T10:44:48.576Z,51.73
2018-10-01T10:47:18.507Z,49.82
2018-10-01T10:49:48.510Z,52.24
2018-10-01T10:52:18.480Z,52.10
2018-10-01T10:54:48.512Z,51.92
2018-10-01T10:57:18.460Z,50.79
2018-10-01T10:59:48.454Z,50.89
2018-10-01T11:02:18.481Z,50.64
2018-10-01T11:04:48.448Z,51.50
2018-10-01T11:07:18.464Z,52.49
2018-10-01T11:09:48.426Z,51.45
2018-10-01T11:12:18.381Z,51.84
2018-10-01T11:14:48.444Z,53.34
2018-10-01T11:17:18.386Z,53.45
2018-10-01T11:19:48.460Z,53.88
2018-10-01T11:22:18.319Z,53.33
2018-10-01T11:24:48.368Z,53.91
2018-10-01T11:27:18.426Z,55.14
2018-10-01T11:29:48.259Z,56.29
2018-10-01T11:32:18.233Z,57.00
2018-10-01T11:34:48.279Z,56.85
2018-10-01T11:37:18.170Z,57.78
2018-10-01T11:39:48.307Z,57.43
2018-10-01T11:42:18.173Z,57.45
2018-10-01T11:44:48.201Z,57.92
2018-10-01T11:47:18.206Z,59.13
2018-10-01T11:49:48.190Z,60.34
2018-10-01T11:52:18.190Z,58.89
2018-10-01T11:54:48.162Z,59.42
2018-10-01T11:57:18.163Z,58.04
2018-10-01T11:59:48.154Z,57.83
2018-10-01T12:02:18.267Z,57.87
2018-10-01T12:04:48.326Z,58.43
2018-10-01T12:07:18.241Z,58.44
2018-10-01T12:09:48.410Z,54.10
2018-10-01T12:12:18.311Z,50.55
2018-10-01T12:14:48.320Z,51.62
2018-10-01T12:17:18.356Z,51.46
2018-10-01T12:19:48.394Z,51.48
2018-10-01T12:22:18.405Z,51.68
2018-10-01T12:24:48.446Z,51.99
2018-10-01T12:27:18.450Z,52.09
2018-10-01T12:29:48.392Z,52.33
2018-10-01T12:32:18.585Z,53.06
2018-10-01T12:34:48.615Z,52.52
2018-10-01T12:37:18.648Z,52.60
2018-10-01T12:39:48.706Z,52.36
2018-10-01T12:42:18.706Z,52.40
2018-10-01T12:44:48.637Z,52.20
2018-10-01T12:47:18.766Z,52.78
2018-10-01T12:49:48.820Z,53.41
2018-10-01T12:52:18.753Z,53.66
2018-10-01T12:54:48.707Z,53.21
2018-10-01T12:57:20.475Z,52.71
2018-10-01T12:59:50.646Z,54.25
2018-10-01T13:02:21.045Z,53.95
2018-10-01T13:04:51.283Z,53.78
2018-10-01T13:07:21.451Z,52.97
2018-10-01T13:09:51.508Z,53.91
2018-10-01T13:12:21.528Z,52.64
2018-10-01T13:14:52.518Z,53.20
2018-10-01T13:17:22.500Z,53.60
2018-10-01T13:19:55.583Z,52.81
2018-10-01T13:22:25.782Z,54.11
2018-10-01T13:24:55.813Z,52.53
2018-10-01T13:27:26.862Z,52.72
2018-10-01T13:29:56.866Z,53.46
2018-10-01T13:32:32.758Z,52.92
2018-10-01T13:35:04.336Z,53.50
2018-10-01T13:37:34.257Z,54.46
2018-10-01T13:40:04.133Z,54.68
2018-10-01T13:42:34.182Z,55.64
2018-10-01T13:45:04.120Z,56.84
2018-10-01T13:47:34.813Z,57.07
2018-10-01T13:50:04.892Z,57.21
2018-10-01T13:52:34.914Z,56.56
2018-10-01T13:55:04.979Z,57.56
2018-10-01T13:57:35.916Z,57.88
2018-10-01T14:00:06.175Z,58.22
2018-10-01T14:02:36.168Z,58.08
2018-10-01T14:05:06.350Z,56.59
2018-10-01T14:07:37.371Z,57.11
2018-10-01T14:10:08.322Z,56.18
2018-10-01T14:12:38.275Z,56.58
2018-10-01T14:15:08.865Z,56.24
2018-10-01T14:17:39.447Z,54.68
2018-10-01T14:20:10.331Z,55.02
2018-10-01T14:22:40.313Z,54.68
2018-10-01T14:25:10.462Z,55.18
2018-10-01T14:27:41.377Z,54.18
2018-10-01T14:30:11.728Z,54.55
2018-10-01T14:32:41.768Z,54.28
2018-10-01T14:35:11.769Z,54.27
2018-10-01T14:37:44.582Z,54.16
2018-10-01T14:40:15.180Z,54.57
2018-10-01T14:42:45.199Z,55.79
2018-10-01T14:45:15.960Z,53.69
2018-10-01T14:47:45.927Z,53.41
2018-10-01T14:50:17.049Z,54.60
2018-10-01T14:52:47.004Z,52.81
2018-10-01T14:55:16.961Z,52.90
2018-10-01T14:57:46.915Z,49.33
2018-10-01T15:00:17.035Z,50.06
2018-10-01T15:02:46.916Z,49.94
2018-10-01T15:05:16.919Z,50.60
2018-10-01T15:07:46.918Z,50.15
2018-10-01T15:10:16.882Z,50.97
2018-10-01T15:12:46.881Z,50.72
2018-10-01T15:15:18.675Z,51.94
2018-10-01T15:17:48.730Z,52.26
2018-10-01T15:20:18.747Z,52.32
2018-10-01T15:22:48.750Z,53.11
2018-10-01T15:25:18.725Z,51.94
2018-10-01T15:27:48.792Z,52.65
2018-10-01T15:30:18.898Z,53.22
2018-10-01T15:32:48.918Z,52.63
2018-10-01T15:35:18.927Z,52.48
2018-10-01T15:37:49.017Z,53.28
2018-10-01T15:40:19.177Z,52.81
2018-10-01T15:42:49.600Z,52.65
2018-10-01T15:45:22.648Z,54.01
2018-10-01T15:47:52.821Z,53.70
2018-10-01T15:50:22.846Z,53.14
2018-10-01T15:52:52.843Z,54.01
2018-10-01T15:55:22.883Z,54.20
2018-10-01T15:57:53.062Z,54.32
2018-10-01T16:00:23.446Z,54.24
2018-10-01T16:02:53.456Z,54.58
2018-10-01T16:05:23.475Z,53.69
2018-10-01T16:07:53.540Z,54.47
2018-10-01T16:10:23.619Z,53.99
2018-10-01T16:12:53.578Z,54.16
2018-10-01T16:15:23.523Z,54.31
2018-10-01T16:17:53.457Z,53.37
2018-10-01T16:20:23.564Z,53.26
2018-10-01T16:22:53.660Z,53.50
2018-10-01T16:25:23.807Z,53.48
2018-10-01T16:27:53.802Z,53.79
2018-10-01T16:30:23.822Z,53.40
2018-10-01T16:32:53.789Z,54.22
2018-10-01T16:35:23.794Z,54.28
2018-10-01T16:37:53.821Z,54.82
2018-10-01T16:40:23.859Z,58.57
2018-10-01T16:42:53.804Z,58.21
2018-10-01T16:45:23.969Z,57.83
2018-10-01T16:47:53.977Z,58.79
2018-10-01T16:50:24.080Z,59.47
2018-10-01T16:52:54.101Z,60.98
2018-10-01T16:55:24.106Z,61.89
2018-10-01T16:57:54.156Z,62.69
2018-10-01T17:00:24.159Z,63.20
2018-10-01T17:02:54.216Z,63.50
2018-10-01T17:05:24.213Z,64.08
2018-10-01T17:07:54.229Z,64.62
2018-10-01T17:10:24.303Z,64.73
2018-10-01T17:12:54.316Z,65.25
2018-10-01T17:15:24.477Z,65.43
2018-10-01T17:17:54.497Z,65.67
2018-10-01T17:20:24.544Z,65.44
2018-10-01T17:22:54.593Z,65.77
2018-10-01T17:25:24.593Z,66.33
2018-10-01T17:27:54.763Z,66.18
2018-10-01T17:30:24.896Z,66.54
2018-10-01T17:32:54.953Z,66.22
2018-10-01T17:35:25.045Z,66.48
2018-10-01T17:37:55.136Z,66.81
2018-10-01T17:40:25.221Z,66.44
2018-10-01T17:42:55.256Z,66.59
2018-10-01T17:45:25.362Z,66.59
2018-10-01T17:47:55.471Z,66.83
2018-10-01T17:50:25.695Z,67.32
2018-10-01T17:52:55.735Z,67.53
2018-10-01T17:55:25.762Z,67.69
2018-10-01T17:57:55.836Z,68.13
2018-10-01T18:00:25.997Z,68.35
2018-10-01T18:02:56.105Z,68.19
2018-10-01T18:05:26.227Z,68.48
2018-10-01T18:07:56.188Z,68.61
2018-10-01T18:10:26.196Z,67.92
2018-10-01T18:12:56.239Z,67.96
2018-10-01T18:15:26.387Z,67.38
2018-10-01T18:17:56.491Z,66.69
2018-10-01T18:20:26.559Z,66.56
2018-10-01T18:22:56.517Z,66.46
2018-10-01T18:25:26.472Z,66.71
2018-10-01T18:27:56.481Z,65.43
2018-10-01T18:30:26.653Z,65.68
2018-10-01T18:32:57.028Z,66.55
2018-10-01T18:35:27.042Z,66.44
2018-10-01T18:37:57.135Z,67.04
2018-10-01T18:40:27.119Z,67.22
2018-10-01T18:42:57.231Z,67.49
2018-10-01T18:45:27.304Z,67.76
2018-10-01T18:47:57.318Z,67.94
2018-10-01T18:50:27.320Z,68.00
2018-10-01T18:52:57.354Z,67.56
2018-10-01T18:55:27.438Z,67.69
2018-10-01T18:57:57.465Z,67.84
2018-10-01T19:00:27.480Z,67.62
2018-10-01T19:02:57.520Z,67.62
2018-10-01T19:05:27.488Z,67.44
2018-10-01T19:07:57.516Z,67.57
2018-10-01T19:10:27.654Z,67.22
2018-10-01T19:12:57.705Z,67.06
2018-10-01T19:15:27.745Z,67.12
2018-10-01T19:17:57.886Z,66.94
2018-10-01T19:20:27.883Z,67.48
2018-10-01T19:22:57.962Z,67.24
2018-10-01T19:25:28.000Z,67.37
2018-10-01T19:27:58.003Z,67.32
2018-10-01T19:30:28.103Z,67.25
2018-10-01T19:32:58.133Z,67.52
2018-10-01T19:35:28.171Z,67.47
2018-10-01T19:37:58.244Z,67.20
2018-10-01T19:40:28.265Z,67.64
2018-10-01T19:42:58.353Z,67.33
2018-10-01T19:45:28.411Z,67.33
2018-10-01T19:47:58.633Z,67.49
2018-10-01T19:50:28.676Z,67.43
2018-10-01T19:52:58.828Z,67.07
2018-10-01T19:55:28.791Z,67.33
2018-10-01T19:57:58.885Z,67.78
2018-10-01T20:00:28.980Z,67.80
2018-10-01T20:03:00.509Z,67.51
2018-10-01T20:05:30.568Z,67.99
2018-10-01T20:08:00.634Z,68.30
2018-10-01T20:10:30.700Z,68.27
2018-10-01T20:13:00.769Z,68.60
2018-10-01T20:15:30.813Z,68.53
2018-10-01T20:18:00.797Z,69.02
2018-10-01T20:20:30.794Z,69.02
2018-10-01T20:23:00.812Z,68.71
2018-10-01T20:25:31.077Z,69.05
2018-10-01T20:28:01.373Z,69.37
2018-10-01T20:30:31.676Z,69.50
2018-10-01T20:33:01.823Z,69.52
2018-10-01T20:35:31.933Z,69.33
2018-10-01T20:38:01.987Z,69.58
2018-10-01T20:40:31.915Z,69.09
2018-10-01T20:43:01.940Z,69.09
2018-10-01T20:45:32.007Z,68.60
2018-10-01T20:48:02.106Z,68.91
2018-10-01T20:50:32.118Z,68.64
2018-10-01T20:53:02.280Z,68.55
2018-10-01T20:55:32.200Z,68.41
2018-10-01T20:58:02.219Z,68.48
2018-10-01T21:00:32.268Z,68.53
2018-10-01T21:03:02.388Z,68.40
2018-10-01T21:05:32.450Z,68.10
2018-10-01T21:08:02.454Z,68.36
2018-10-01T21:10:32.504Z,68.08
2018-10-01T21:13:02.558Z,68.15
2018-10-01T21:15:32.651Z,68.30
2018-10-01T21:18:02.718Z,68.07
2018-10-01T21:20:32.772Z,68.14
2018-10-01T21:23:02.812Z,68.09
2018-10-01T21:25:32.869Z,68.28
2018-10-01T21:28:02.803Z,68.33
2018-10-01T21:30:32.914Z,68.41
2018-10-01T21:33:02.899Z,68.11
2018-10-01T21:35:33.034Z,68.28
2018-10-01T21:38:03.032Z,68.25
2018-10-01T21:40:33.054Z,68.70
2018-10-01T21:43:03.050Z,67.95
2018-10-01T21:45:33.073Z,68.42
2018-10-01T21:48:03.097Z,68.65
2018-10-01T21:50:33.015Z,68.69
2018-10-01T21:53:03.073Z,68.60
2018-10-01T21:55:33.015Z,68.79
2018-10-01T21:58:03.059Z,68.84
2018-10-01T22:00:38.002Z,68.75
2018-10-01T22:03:08.070Z,68.68
2018-10-01T22:05:38.080Z,68.73
2018-10-01T22:08:08.156Z,69.19
2018-10-01T22:10:38.131Z,69.25
2018-10-01T22:13:08.112Z,69.00
2018-10-01T22:15:43.050Z,69.02
2018-10-01T22:18:14.581Z,68.90
2018-10-01T22:20:45.230Z,69.15
2018-10-01T22:23:15.897Z,69.31
2018-10-01T22:25:45.891Z,69.24
2018-10-01T22:28:15.937Z,69.13
2018-10-01T22:30:45.940Z,69.29
2018-10-01T22:33:15.968Z,69.27
2018-10-01T22:35:45.956Z,69.46
2018-10-01T22:38:16.016Z,69.67
2018-10-01T22:40:46.022Z,69.70
2018-10-01T22:43:16.064Z,70.01
2018-10-01T22:45:46.079Z,70.24
2018-10-01T22:48:16.059Z,70.45
2018-10-01T22:50:46.107Z,70.60
2018-10-01T22:53:16.004Z,70.80
2018-10-01T22:55:46.058Z,70.77
2018-10-01T22:58:16.058Z,70.46
2018-10-01T23:00:46.076Z,70.63
2018-10-01T23:03:16.053Z,70.89
2018-10-01T23:05:46.075Z,70.98
2018-10-01T23:08:16.086Z,71.22
2018-10-01T23:10:46.099Z,70.99
2018-10-01T23:13:16.091Z,70.72
2018-10-01T23:15:45.967Z,71.23
2018-10-01T23:18:15.958Z,70.89
2018-10-01T23:20:45.984Z,70.99
2018-10-01T23:23:15.975Z,70.86
2018-10-01T23:25:45.936Z,70.77
2018-10-01T23:28:15.974Z,71.22
2018-10-01T23:30:45.953Z,70.98
2018-10-01T23:33:15.913Z,70.91
2018-10-01T23:35:45.898Z,70.88
2018-10-01T23:38:16.048Z,70.96
2018-10-01T23:40:46.107Z,70.79
2018-10-01T23:43:16.106Z,71.04
2018-10-01T23:45:46.154Z,71.17
2018-10-01T23:48:16.154Z,71.10
2018-10-01T23:50:46.167Z,71.35
2018-10-01T23:53:16.167Z,71.16
2018-10-01T23:55:46.220Z,71.11
2018-10-01T23:58:16.286Z,71.20
